Dawmont, West Virginia
Current Conditions -  °F | °C
As of 10:53 AM on Thursday 30 Oct 2014 (Local Time) from KCKB Reporting Station
Broken Clouds Broken Clouds  
Wind Chill: 45°   Ceiling: 4800
Heat Index: 45°   Visibility: 10mi
Dew Point: 37°   Wind: 0mph
Humidity: 74%   Direction: NA
Pressure: 30.12"   Gusts: NA
Location:  39.2941°N, 80.3845°W
Report Text: KCKB 301453Z 00000KT 10SM BKN048 07/03 A3012 RMK AO2 SLP198 T00720028 50006
Loading
Personal Weather Stations






























Interactive Weather Map
Tropical Storm Tracking
New forecast layout! Learn more

10-Day Weather Forecast

Advertisements
Track Severe Weather on mobile